createdAt,value
2018-05-27T00:01:17.136Z,99.90
2018-05-27T00:03:47.267Z,99.90
2018-05-27T00:06:16.882Z,99.90
2018-05-27T00:08:47.848Z,99.90
2018-05-27T00:11:17.679Z,99.80
2018-05-27T00:13:47.650Z,99.90
2018-05-27T00:16:20.753Z,99.90
2018-05-27T00:18:51.608Z,99.90
2018-05-27T00:21:21.615Z,99.90
2018-05-27T00:23:51.445Z,99.90
2018-05-27T00:26:21.084Z,99.90
2018-05-27T00:28:50.882Z,99.90
2018-05-27T00:31:21.195Z,99.90
2018-05-27T00:33:51.815Z,99.90
2018-05-27T00:36:21.503Z,99.90
2018-05-27T00:38:51.179Z,99.90
2018-05-27T00:41:21.050Z,99.90
2018-05-27T00:43:50.770Z,99.90
2018-05-27T00:46:20.497Z,99.90
2018-05-27T00:48:50.321Z,99.90
2018-05-27T00:51:20.926Z,99.90
2018-05-27T00:54:01.054Z,99.50
2018-05-27T00:56:30.877Z,99.40
2018-05-27T00:59:01.149Z,99.40
2018-05-27T01:01:32.133Z,99.90
2018-05-27T01:04:02.309Z,99.90
2018-05-27T01:06:31.955Z,99.90
2018-05-27T01:09:02.993Z,99.90
2018-05-27T01:11:32.808Z,99.90
2018-05-27T01:14:02.883Z,99.90
2018-05-27T01:16:32.773Z,99.90
2018-05-27T01:19:03.504Z,99.90
2018-05-27T01:21:33.663Z,99.90
2018-05-27T01:24:04.154Z,99.90
2018-05-27T01:26:33.880Z,99.90
2018-05-27T01:29:07.266Z,99.90
2018-05-27T01:31:38.920Z,99.90
2018-05-27T01:34:08.523Z,99.90
2018-05-27T01:36:38.588Z,99.90
2018-05-27T01:39:14.490Z,99.90
2018-05-27T01:41:45.884Z,99.90
2018-05-27T01:44:15.744Z,99.90
2018-05-27T01:46:45.630Z,99.90
2018-05-27T01:49:15.254Z,99.90
2018-05-27T01:51:45.423Z,99.90
2018-05-27T01:54:16.233Z,99.90
2018-05-27T01:56:46.212Z,99.90
2018-05-27T01:59:15.788Z,99.90
2018-05-27T02:01:45.712Z,99.90
2018-05-27T02:04:16.425Z,99.90
2018-05-27T02:06:46.728Z,99.90
2018-05-27T02:09:16.359Z,99.90
2018-05-27T02:11:47.031Z,99.90
2018-05-27T02:14:16.672Z,99.90
2018-05-27T02:16:46.670Z,99.90
2018-05-27T02:19:16.301Z,99.90
2018-05-27T02:21:46.954Z,99.90
2018-05-27T02:24:17.671Z,99.90
2018-05-27T02:26:47.530Z,99.90
2018-05-27T02:29:17.209Z,99.90
2018-05-27T02:31:46.740Z,99.90
2018-05-27T02:34:17.961Z,99.90
2018-05-27T02:36:48.636Z,99.90
2018-05-27T02:39:19.031Z,99.90
2018-05-27T02:42:11.236Z,99.90
2018-05-27T02:44:41.991Z,99.90
2018-05-27T02:47:12.171Z,99.90
2018-05-27T02:49:42.727Z,99.90
2018-05-27T02:52:12.568Z,99.90
2018-05-27T02:54:42.395Z,99.90
2018-05-27T02:57:12.601Z,99.90
2018-05-27T02:59:42.328Z,99.90
2018-05-27T03:02:12.155Z,99.90
2018-05-27T03:04:42.835Z,99.90
2018-05-27T03:07:13.863Z,99.90
2018-05-27T03:09:43.710Z,99.90
2018-05-27T03:12:13.540Z,99.90
2018-05-27T03:14:43.254Z,99.90
2018-05-27T03:17:12.728Z,99.90
2018-05-27T03:19:42.359Z,99.90
2018-05-27T03:22:12.056Z,99.90
2018-05-27T03:24:41.974Z,99.90
2018-05-27T03:27:11.541Z,99.90
2018-05-27T03:29:41.200Z,99.90
2018-05-27T03:32:11.808Z,99.90
2018-05-27T03:34:41.300Z,99.90
2018-05-27T03:37:11.555Z,99.90
2018-05-27T03:39:41.012Z,99.90
2018-05-27T03:42:11.572Z,99.90
2018-05-27T03:44:41.077Z,99.90
2018-05-27T03:47:10.892Z,99.90
2018-05-27T03:49:40.349Z,99.90
2018-05-27T03:52:09.826Z,99.90
2018-05-27T03:54:39.639Z,99.90
2018-05-27T03:57:09.454Z,99.90
2018-05-27T03:59:38.975Z,99.90
2018-05-27T04:02:08.478Z,99.90
2018-05-27T04:05:06.213Z,99.90
2018-05-27T04:10:42.500Z,99.90
2018-05-27T04:13:12.241Z,99.90
2018-05-27T04:15:41.830Z,99.90
2018-05-27T04:18:11.541Z,99.90
2018-05-27T04:20:41.097Z,99.90
2018-05-27T04:23:10.807Z,99.90
2018-05-27T04:25:40.356Z,99.90
2018-05-27T04:28:09.915Z,99.90
2018-05-27T04:30:40.167Z,99.60
2018-05-27T04:33:09.791Z,99.60
2018-05-27T04:35:39.319Z,98.90
2018-05-27T04:38:08.933Z,99.30
2018-05-27T04:40:38.639Z,99.90
2018-05-27T04:43:08.227Z,99.70
2018-05-27T04:45:37.775Z,99.90
2018-05-27T04:48:07.429Z,98.90
2018-05-27T04:50:37.062Z,98.20
2018-05-27T04:53:06.550Z,97.70
2018-05-27T04:55:36.154Z,97.50
2018-05-27T04:58:05.670Z,97.30
2018-05-27T05:00:35.194Z,97.00
2018-05-27T05:03:04.923Z,96.00
2018-05-27T05:05:34.405Z,95.00
2018-05-27T05:08:04.096Z,97.20
2018-05-27T05:10:33.708Z,95.50
2018-05-27T05:13:04.011Z,95.30
2018-05-27T05:15:34.585Z,94.50
2018-05-27T05:18:04.161Z,94.50
2018-05-27T05:20:33.777Z,96.00
2018-05-27T05:23:03.392Z,94.60
2018-05-27T05:25:32.885Z,93.80
2018-05-27T05:28:02.739Z,93.50
2018-05-27T05:30:32.276Z,95.40
2018-05-27T05:33:02.333Z,94.00
2018-05-27T05:35:32.580Z,94.70
2018-05-27T05:38:02.501Z,93.70
2018-05-27T05:40:32.925Z,92.70
2018-05-27T05:43:02.733Z,92.60
2018-05-27T05:45:32.317Z,92.10
2018-05-27T05:48:02.671Z,92.40
2018-05-27T05:50:32.359Z,93.10
2018-05-27T05:53:02.485Z,95.50
2018-05-27T05:55:33.608Z,95.10
2018-05-27T05:58:03.372Z,94.90
2018-05-27T06:00:33.168Z,94.10
2018-05-27T06:03:03.209Z,91.50
2018-05-27T06:05:33.610Z,92.10
2018-05-27T06:08:04.561Z,92.10
2018-05-27T06:10:34.083Z,92.60
2018-05-27T06:13:03.569Z,93.30
2018-05-27T06:15:35.272Z,94.00
2018-05-27T06:18:05.352Z,93.90
2018-05-27T06:20:35.020Z,94.80
2018-05-27T06:23:04.567Z,95.60
2018-05-27T06:25:34.163Z,96.10
2018-05-27T06:28:06.889Z,95.40
2018-05-27T06:30:39.415Z,95.40
2018-05-27T06:33:09.161Z,95.00
2018-05-27T06:35:40.572Z,92.50
2018-05-27T06:38:17.661Z,91.80
2018-05-27T06:40:47.198Z,91.70
2018-05-27T06:43:16.713Z,90.30
2018-05-27T06:45:47.645Z,89.70
2018-05-27T06:48:19.050Z,89.00
2018-05-27T06:50:49.647Z,88.90
2018-05-27T06:53:20.044Z,90.50
2018-05-27T06:55:49.646Z,90.50
2018-05-27T06:58:20.468Z,91.20
2018-05-27T07:00:53.296Z,89.50
2018-05-27T07:03:23.596Z,89.30
2018-05-27T07:06:05.405Z,94.20
2018-05-27T07:08:38.160Z,94.10
2018-05-27T07:11:13.584Z,94.80
2018-05-27T07:13:46.610Z,95.00
2018-05-27T07:16:21.722Z,94.80
2018-05-27T07:18:51.650Z,94.80
2018-05-27T07:21:29.687Z,93.10
2018-05-27T07:24:01.721Z,93.00
2018-05-27T07:26:32.748Z,94.10
2018-05-27T07:29:03.840Z,94.00
2018-05-27T07:31:34.579Z,92.00
2018-05-27T07:37:41.420Z,90.10
2018-05-27T07:40:14.238Z,80.10
2018-05-27T07:42:58.256Z,84.40
2018-05-27T07:45:39.782Z,84.30
2018-05-27T07:48:09.300Z,83.40
2018-05-27T07:50:38.961Z,77.20
2018-05-27T07:53:09.515Z,65.90
2018-05-27T07:55:39.907Z,64.30
2018-05-27T07:58:11.703Z,63.90
2018-05-27T08:00:41.234Z,63.90
2018-05-27T08:03:10.833Z,65.10
2018-05-27T08:05:41.801Z,72.10
2018-05-27T08:08:12.076Z,68.40
2018-05-27T08:10:41.895Z,68.30
2018-05-27T08:13:11.430Z,63.90
2018-05-27T08:15:41.865Z,69.10
2018-05-27T08:18:12.525Z,67.90
2018-05-27T08:20:42.194Z,67.90
2018-05-27T08:23:12.450Z,71.40
2018-05-27T08:25:41.979Z,70.90
2018-05-27T08:28:11.546Z,74.30
2018-05-27T08:30:42.009Z,74.00
2018-05-27T08:33:11.517Z,73.70
2018-05-27T08:35:41.242Z,71.00
2018-05-27T08:38:10.884Z,73.10
2018-05-27T08:40:40.562Z,72.10
2018-05-27T08:43:10.168Z,71.00
2018-05-27T08:45:39.708Z,74.50
2018-05-27T08:48:09.647Z,74.30
2018-05-27T08:50:40.346Z,70.30
2018-05-27T08:53:10.462Z,67.50
2018-05-27T08:55:40.076Z,69.40
2018-05-27T08:58:09.624Z,67.20
2018-05-27T09:00:39.335Z,69.80
2018-05-27T09:03:09.095Z,67.00
2018-05-27T09:05:38.871Z,70.10
2018-05-27T09:08:09.860Z,74.10
2018-05-27T09:10:39.523Z,74.50
2018-05-27T09:13:09.890Z,73.70
2018-05-27T09:15:39.394Z,73.80
2018-05-27T09:18:09.253Z,77.30
2018-05-27T09:20:38.872Z,74.30
2018-05-27T09:23:08.581Z,75.20
2018-05-27T09:25:38.297Z,69.40
2018-05-27T09:28:07.835Z,71.20
2018-05-27T09:30:37.553Z,70.00
2018-05-27T09:33:06.974Z,72.10
2018-05-27T09:35:36.667Z,73.40
2018-05-27T09:38:06.145Z,73.30
2018-05-27T09:40:37.086Z,73.30
2018-05-27T09:43:07.399Z,77.10
2018-05-27T09:45:36.898Z,77.10
2018-05-27T09:48:06.495Z,76.50
2018-05-27T09:50:36.182Z,79.20
2018-05-27T09:53:05.684Z,75.40
2018-05-27T09:55:35.427Z,77.80
2018-05-27T09:58:04.982Z,73.80
2018-05-27T10:00:35.403Z,76.10
2018-05-27T10:03:04.876Z,76.10
2018-05-27T10:05:34.478Z,74.50
2018-05-27T10:08:15.047Z,74.30
2018-05-27T10:10:44.983Z,74.80
2018-05-27T10:13:15.263Z,76.20
2018-05-27T10:15:46.115Z,75.80
2018-05-27T10:18:15.678Z,78.10
2018-05-27T10:20:45.274Z,80.00
2018-05-27T10:23:14.901Z,80.70
2018-05-27T10:25:45.405Z,78.70
2018-05-27T10:28:15.027Z,77.20
2018-05-27T10:30:44.739Z,78.00
2018-05-27T10:33:14.813Z,78.80
2018-05-27T10:35:45.321Z,76.90
2018-05-27T10:38:15.976Z,76.90
2018-05-27T10:40:46.290Z,76.00
2018-05-27T10:43:15.998Z,75.90
2018-05-27T10:45:45.506Z,76.50
2018-05-27T10:48:15.685Z,75.80
2018-05-27T10:50:45.323Z,76.30
2018-05-27T10:53:15.419Z,74.00
2018-05-27T10:55:45.874Z,74.00
2018-05-27T10:58:15.652Z,74.80
2018-05-27T11:00:45.117Z,76.20
2018-05-27T11:03:14.828Z,74.10
2018-05-27T11:05:45.193Z,74.90
2018-05-27T11:08:15.810Z,76.60
2018-05-27T11:10:46.094Z,78.10
2018-05-27T11:13:15.907Z,78.10
2018-05-27T11:15:57.301Z,79.10
2018-05-27T11:18:28.246Z,79.00
2018-05-27T11:20:57.975Z,78.50
2018-05-27T11:23:28.288Z,80.10
2018-05-27T11:25:58.116Z,79.60
2018-05-27T11:28:28.627Z,79.00
2018-05-27T11:30:58.240Z,78.50
2018-05-27T11:33:28.092Z,77.90
2018-05-27T11:35:57.695Z,77.30
2018-05-27T11:38:27.767Z,77.10
2018-05-27T11:40:57.332Z,76.60
2018-05-27T11:43:26.795Z,77.10
2018-05-27T11:45:56.289Z,78.10
2018-05-27T11:48:25.742Z,77.00
2018-05-27T11:50:55.270Z,74.70
2018-05-27T11:53:24.817Z,76.00
2018-05-27T11:55:55.135Z,73.70
2018-05-27T11:58:24.647Z,73.50
2018-05-27T12:00:55.004Z,74.10
2018-05-27T12:03:24.541Z,74.10
2018-05-27T12:05:54.150Z,71.10
2018-05-27T12:08:23.808Z,70.30
2018-05-27T12:10:55.689Z,73.00
2018-05-27T12:13:26.522Z,72.40
2018-05-27T12:15:56.375Z,71.70
2018-05-27T12:18:26.046Z,70.20
2018-05-27T12:20:55.913Z,69.20
2018-05-27T12:23:26.303Z,70.30
2018-05-27T12:25:55.907Z,70.40
2018-05-27T12:28:25.508Z,69.50
2018-05-27T12:30:54.978Z,60.80
2018-05-27T12:33:24.411Z,63.10
2018-05-27T12:35:53.880Z,61.40
2018-05-27T12:38:23.302Z,61.70
2018-05-27T12:40:53.929Z,63.40
2018-05-27T12:43:23.386Z,63.40
2018-05-27T12:45:52.952Z,66.50
2018-05-27T12:48:22.430Z,67.20
2018-05-27T12:50:52.307Z,70.60
2018-05-27T12:53:21.769Z,68.00
2018-05-27T12:55:52.046Z,55.20
2018-05-27T12:58:21.702Z,55.20
2018-05-27T13:00:51.315Z,52.60
2018-05-27T13:03:20.943Z,51.90
2018-05-27T13:05:50.553Z,51.80
2018-05-27T13:08:20.099Z,51.90
2018-05-27T13:10:49.934Z,52.40
2018-05-27T13:13:32.176Z,52.70
2018-05-27T13:16:14.655Z,51.40
2018-05-27T13:18:45.541Z,53.10
2018-05-27T13:21:15.538Z,52.10
2018-05-27T13:23:45.287Z,53.10
2018-05-27T13:26:14.776Z,55.60
2018-05-27T13:28:44.625Z,57.90
2018-05-27T13:31:14.110Z,58.40
2018-05-27T13:33:44.478Z,57.00
2018-05-27T13:36:14.683Z,57.40
2018-05-27T13:38:44.272Z,57.90
2018-05-27T13:41:13.777Z,57.10
2018-05-27T13:43:44.858Z,59.70
2018-05-27T13:46:15.187Z,60.80
2018-05-27T13:48:44.764Z,60.70
2018-05-27T13:51:14.531Z,59.70
2018-05-27T13:53:44.360Z,60.60
2018-05-27T13:56:15.240Z,60.50
2018-05-27T13:58:45.008Z,62.70
2018-05-27T14:01:14.633Z,61.00
2018-05-27T14:03:44.217Z,60.70
2018-05-27T14:06:14.279Z,62.50
2018-05-27T14:08:43.992Z,62.50
2018-05-27T14:11:13.535Z,60.00
2018-05-27T14:13:43.034Z,61.50
2018-05-27T14:16:13.911Z,60.10
2018-05-27T14:18:43.592Z,60.30
2018-05-27T14:21:14.318Z,60.50
2018-05-27T14:23:44.664Z,60.70
2018-05-27T14:26:14.296Z,60.80
2018-05-27T14:28:43.923Z,59.80
2018-05-27T14:31:14.586Z,57.80
2018-05-27T14:33:44.199Z,59.40
2018-05-27T14:36:14.527Z,61.50
2018-05-27T14:38:51.330Z,60.80
2018-05-27T15:45:42.747Z,64.90
2018-05-27T16:10:13.141Z,64.30
2018-05-27T16:12:42.898Z,64.20
2018-05-27T16:15:16.544Z,63.80
2018-05-27T16:17:46.737Z,63.60
2018-05-27T16:20:17.313Z,63.80
2018-05-27T16:22:48.194Z,62.50
2018-05-27T16:25:18.677Z,62.90
2018-05-27T16:27:49.387Z,64.20
2018-05-27T16:30:20.675Z,64.10
2018-05-27T16:32:51.181Z,63.70
2018-05-27T16:35:20.877Z,64.70
2018-05-27T16:37:50.374Z,65.50
2018-05-27T16:40:22.297Z,66.00
2018-05-27T16:42:51.958Z,67.00
2018-05-27T16:45:21.459Z,67.10
2018-05-27T16:47:50.987Z,68.30
2018-05-27T16:50:21.413Z,68.70
2018-05-27T16:52:51.972Z,69.10
2018-05-27T16:55:21.941Z,68.70
2018-05-27T16:57:53.194Z,69.80
2018-05-27T17:00:25.623Z,70.20
2018-05-27T17:02:55.569Z,70.20
2018-05-27T17:05:26.111Z,70.90
2018-05-27T17:07:55.580Z,70.80
2018-05-27T17:10:25.119Z,71.50
2018-05-27T17:12:54.942Z,72.10
2018-05-27T17:15:24.368Z,72.40
2018-05-27T17:17:54.317Z,72.90
2018-05-27T17:20:28.278Z,73.10
2018-05-27T17:23:00.991Z,72.20
2018-05-27T17:28:25.434Z,72.10
2018-05-27T17:30:55.700Z,74.20
2018-05-27T17:33:25.211Z,74.10
2018-05-27T17:35:55.280Z,75.00
2018-05-27T17:38:26.289Z,72.70
2018-05-27T17:40:56.533Z,72.50
2018-05-27T17:43:27.919Z,68.00
2018-05-27T17:45:57.328Z,68.00
2018-05-27T17:48:26.890Z,67.40
2018-05-27T17:50:57.159Z,67.20
2018-05-27T17:53:26.648Z,67.10
2018-05-27T17:55:56.884Z,67.70
2018-05-27T17:58:26.580Z,66.20
2018-05-27T18:00:56.925Z,74.20
2018-05-27T18:03:26.591Z,74.30
2018-05-27T18:05:59.531Z,77.00
2018-05-27T18:08:43.991Z,78.30
2018-05-27T18:11:25.584Z,81.40
2018-05-27T18:13:58.921Z,80.20
2018-05-27T18:16:39.474Z,79.70
2018-05-27T18:19:23.249Z,79.80
2018-05-27T18:22:05.079Z,77.70
2018-05-27T18:24:45.120Z,77.50
2018-05-27T18:27:25.542Z,76.50
2018-05-27T18:29:58.817Z,70.30
2018-05-27T18:32:34.806Z,66.80
2018-05-27T18:35:04.860Z,66.70
2018-05-27T18:37:34.663Z,63.40
2018-05-27T18:40:06.710Z,64.20
2018-05-27T18:42:46.286Z,68.30
2018-05-27T18:45:17.313Z,70.20
2018-05-27T18:47:46.919Z,70.90
2018-05-27T18:50:17.979Z,70.80
2018-05-27T18:52:48.413Z,71.00
2018-05-27T18:55:19.014Z,72.40
2018-05-27T18:57:54.312Z,74.60
2018-05-27T19:00:24.017Z,76.70
2018-05-27T19:02:55.033Z,78.80
2018-05-27T19:05:24.561Z,78.60
2018-05-27T19:07:54.045Z,77.20
2018-05-27T19:10:23.634Z,71.40
2018-05-27T19:12:53.345Z,69.90
2018-05-27T19:15:22.893Z,70.40
2018-05-27T19:17:52.602Z,72.70
2018-05-27T19:20:22.136Z,78.80
2018-05-27T19:22:52.522Z,77.80
2018-05-27T19:25:22.409Z,77.70
2018-05-27T19:27:51.987Z,75.10
2018-05-27T19:30:21.721Z,73.20
2018-05-27T19:32:53.254Z,70.60
2018-05-27T19:35:23.659Z,69.00
2018-05-27T19:37:53.273Z,69.00
2018-05-27T19:40:22.826Z,80.40
2018-05-27T19:42:52.335Z,83.00
2018-05-27T19:45:22.686Z,85.70
2018-05-27T19:47:52.200Z,86.90
2018-05-27T19:50:23.163Z,86.50
2018-05-27T19:52:52.694Z,86.30
2018-05-27T19:55:22.355Z,81.10
2018-05-27T19:57:51.980Z,77.90
2018-05-27T20:00:22.199Z,75.60
2018-05-27T20:02:51.862Z,75.90
2018-05-27T20:05:21.644Z,76.40
2018-05-27T20:07:52.078Z,81.30
2018-05-27T20:14:00.833Z,84.60
2018-05-27T20:16:48.572Z,85.90
2018-05-27T20:22:35.272Z,88.70
2018-05-27T20:25:06.029Z,92.10
2018-05-27T20:27:36.309Z,92.80
2018-05-27T20:30:06.060Z,92.80
2018-05-27T20:32:36.325Z,92.80
2018-05-27T20:35:05.942Z,92.80
2018-05-27T20:37:35.608Z,93.60
2018-05-27T20:40:05.433Z,93.80
2018-05-27T20:42:35.026Z,94.10
2018-05-27T20:45:05.526Z,93.20
2018-05-27T20:47:35.268Z,93.20
2018-05-27T20:50:04.910Z,92.20
2018-05-27T20:52:34.597Z,91.50
2018-05-27T20:55:04.160Z,91.20
2018-05-27T20:57:33.671Z,90.90
2018-05-27T21:00:03.229Z,91.20
2018-05-27T21:02:32.803Z,92.80
2018-05-27T21:05:03.761Z,96.00
2018-05-27T21:07:34.554Z,96.00
2018-05-27T21:10:04.420Z,96.70
2018-05-27T21:12:34.626Z,97.10
2018-05-27T21:15:05.070Z,95.60
2018-05-27T21:17:34.784Z,95.60
2018-05-27T21:20:05.395Z,94.90
2018-05-27T21:22:35.976Z,92.90
2018-05-27T21:25:05.454Z,92.50
2018-05-27T21:27:35.747Z,92.00
2018-05-27T21:30:05.588Z,92.30
2018-05-27T21:32:35.161Z,91.30
2018-05-27T21:35:05.620Z,91.40
2018-05-27T21:37:35.097Z,91.40
2018-05-27T21:40:05.554Z,91.60
2018-05-27T21:42:35.334Z,91.60
2018-05-27T21:45:05.750Z,91.70
2018-05-27T21:47:35.252Z,91.10
2018-05-27T21:50:05.080Z,89.90
2018-05-27T21:52:34.586Z,88.00
2018-05-27T21:55:07.213Z,87.60
2018-05-27T21:57:36.811Z,87.60
2018-05-27T22:00:06.890Z,87.60
2018-05-27T22:02:37.053Z,86.30
2018-05-27T22:05:06.651Z,87.80
2018-05-27T22:07:37.015Z,87.60
2018-05-27T22:10:06.896Z,87.50
2018-05-27T22:12:36.577Z,86.50
2018-05-27T22:15:07.017Z,86.60
2018-05-27T22:17:37.395Z,86.90
2018-05-27T22:20:08.406Z,87.30
2018-05-27T22:22:38.114Z,86.60
2018-05-27T22:25:07.855Z,87.20
2018-05-27T22:27:37.547Z,87.60
2018-05-27T22:30:07.096Z,89.50
2018-05-27T22:32:38.179Z,91.60
2018-05-27T22:35:07.777Z,91.90
2018-05-27T22:37:38.135Z,94.10
2018-05-27T22:40:07.704Z,94.10
2018-05-27T22:42:38.184Z,96.70
2018-05-27T22:45:08.261Z,96.70
2018-05-27T22:47:38.799Z,99.30
2018-05-27T22:50:09.383Z,99.90
2018-05-27T22:52:38.875Z,99.90
2018-05-27T22:55:08.583Z,99.90
2018-05-27T22:57:38.150Z,99.90
2018-05-27T23:00:07.766Z,99.90
2018-05-27T23:02:37.051Z,99.90
2018-05-27T23:05:06.898Z,99.90
2018-05-27T23:07:36.367Z,99.60
2018-05-27T23:10:05.891Z,98.90
2018-05-27T23:12:35.369Z,98.30
2018-05-27T23:15:04.950Z,97.90
2018-05-27T23:17:35.740Z,97.00
2018-05-27T23:20:05.611Z,96.10
2018-05-27T23:22:36.203Z,95.10
2018-05-27T23:25:06.137Z,95.10
2018-05-27T23:27:35.751Z,93.00
2018-05-27T23:30:06.969Z,91.90
2018-05-27T23:32:37.544Z,91.90
2018-05-27T23:35:07.146Z,91.90
2018-05-27T23:37:37.530Z,91.10
2018-05-27T23:40:07.228Z,91.10
2018-05-27T23:42:37.631Z,90.50
2018-05-27T23:45:07.928Z,90.50
2018-05-27T23:47:37.578Z,90.20
2018-05-27T23:50:07.777Z,90.60
2018-05-27T23:52:38.148Z,90.80
2018-05-27T23:55:07.945Z,90.80
2018-05-27T23:57:37.445Z,91.90
